Time;durP1;ratioP1;P1;durP2;ratioP2;P2;SDS_P1;SDS_P2;PMS_P1;PMS_P2;Temp;Humidity;BMP_temperature;BMP_pressure;BME280_temperature;BME280_humidity;BME280_pressure;Samples;Min_cycle;Max_cycle;Signal;HPM_P1;HPM_P2
2021/12/11 00:02:15;;;;;;;;;;;;;;;1.72;100.00;97780.94;5067018;28;19947;-63
2021/12/11 00:04:42;;;;;;;;;;;;;;;1.73;100.00;97787.66;5067287;28;20308;-63
2021/12/11 00:07:17;;;;;;;;;;;;;;;1.72;100.00;97786.84;5066114;28;19917;-63
2021/12/11 00:09:47;;;;;;;;;;;;;;;1.53;100.00;97791.38;5065121;28;20015;-63
2021/12/11 00:12:50;;;;;;;;;;;;;;;1.57;100.00;97807.38;5066442;28;19971;-63
2021/12/11 00:15:20;;;;;;;;;;;;;;;1.58;100.00;97809.88;5055397;28;19923;-63
2021/12/11 00:17:46;;;;;;;;;;;;;;;1.49;100.00;97819.34;5064504;28;19962;-63
2021/12/11 00:20:22;;;;;;;;;;;;;;;1.37;100.00;97815.25;5066346;28;19951;-64
2021/12/11 00:22:47;;;;;;;;;;;;;;;1.51;100.00;97828.59;5066262;28;19913;-63
2021/12/11 00:25:14;;;;;;;;;;;;;;;1.49;100.00;97830.31;5065240;28;19919;-63
2021/12/11 00:27:41;;;;;;;;;;;;;;;1.54;100.00;97836.16;5066125;28;20028;-63
2021/12/11 00:30:10;;;;;;;;;;;;;;;1.70;100.00;97838.47;5066601;28;20397;-63
2021/12/11 00:32:36;;;;;;;;;;;;;;;1.72;100.00;97849.44;5065691;28;19912;-63
2021/12/11 00:35:06;;;;;;;;;;;;;;;1.55;100.00;97847.16;5066368;28;20267;-63
2021/12/11 00:37:32;;;;;;;;;;;;;;;1.58;100.00;97847.94;5065508;28;19939;-63
2021/12/11 00:40:14;;;;;;;;;;;;;;;1.50;100.00;97859.06;5064035;28;19933;-63
2021/12/11 00:42:40;;;;;;;;;;;;;;;1.60;100.00;97865.69;5065086;28;19943;-63
2021/12/11 00:45:13;;;;;;;;;;;;;;;1.72;100.00;97862.97;5064428;28;20411;-63
2021/12/11 00:47:44;;;;;;;;;;;;;;;1.65;100.00;97874.91;5067439;28;19923;-63
2021/12/11 00:50:13;;;;;;;;;;;;;;;1.61;100.00;97875.81;5069739;28;19916;-63
2021/12/11 00:53:11;;;;;;;;;;;;;;;1.65;100.00;97885.06;5069568;28;20011;-64
2021/12/11 00:55:45;;;;;;;;;;;;;;;1.61;100.00;97891.03;5068819;28;19923;-63
2021/12/11 00:58:18;;;;;;;;;;;;;;;1.61;100.00;97888.50;5069214;28;19978;-63
2021/12/11 01:00:55;;;;;;;;;;;;;;;1.59;100.00;97886.84;5069065;28;20043;-63
2021/12/11 01:03:27;;;;;;;;;;;;;;;1.61;100.00;97897.81;5069831;28;20313;-63
2021/12/11 01:05:54;;;;;;;;;;;;;;;1.47;100.00;97898.00;5069209;28;20394;-63
2021/12/11 01:08:27;;;;;;;;;;;;;;;1.34;100.00;97901.56;5070374;28;20340;-63
2021/12/11 01:10:56;;;;;;;;;;;;;;;1.31;100.00;97909.22;5069410;28;19932;-63
2021/12/11 01:13:27;;;;;;;;;;;;;;;1.45;100.00;97910.69;5070293;28;20344;-63
2021/12/11 01:16:00;;;;;;;;;;;;;;;1.35;100.00;97918.47;5069169;28;19962;-63
2021/12/11 01:18:35;;;;;;;;;;;;;;;1.17;100.00;97927.13;5069662;28;19982;-63
2021/12/11 01:22:09;;;;;;;;;;;;;;;1.29;100.00;97928.69;5068909;28;19916;-63
2021/12/11 01:24:30;;;;;;;;;;;;;;;1.17;100.00;97935.56;5066877;28;19921;-63
2021/12/11 01:27:00;;;;;;;;;;;;;;;1.51;100.00;97941.94;5070659;28;19925;-63
2021/12/11 01:29:28;;;;;;;;;;;;;;;1.58;100.00;97941.84;5069400;28;20346;-63
2021/12/11 01:31:56;;;;;;;;;;;;;;;1.50;100.00;97951.22;5068901;28;19927;-63
2021/12/11 01:34:21;;;;;;;;;;;;;;;1.31;100.00;97952.31;5069629;28;20275;-63
2021/12/11 01:36:47;;;;;;;;;;;;;;;1.33;100.00;97955.69;5069682;28;19951;-63
2021/12/11 01:39:16;;;;;;;;;;;;;;;1.46;100.00;97957.22;5067777;28;19920;-64
2021/12/11 01:41:41;;;;;;;;;;;;;;;1.29;100.00;97974.34;5069681;28;20304;-63
2021/12/11 01:44:16;;;;;;;;;;;;;;;1.32;100.00;97975.13;5069070;28;20145;-63
2021/12/11 01:46:42;;;;;;;;;;;;;;;1.22;100.00;97986.25;5068978;28;19920;-63
2021/12/11 01:49:20;;;;;;;;;;;;;;;1.43;100.00;97987.69;5070186;28;19970;-63
2021/12/11 01:51:52;;;;;;;;;;;;;;;1.29;100.00;97989.53;5068940;28;19981;-63
2021/12/11 01:54:23;;;;;;;;;;;;;;;1.30;100.00;97993.75;5069144;28;19965;-63
2021/12/11 01:56:58;;;;;;;;;;;;;;;1.14;100.00;97995.63;5067300;27;20385;-63
2021/12/11 01:59:28;;;;;;;;;;;;;;;1.39;100.00;98001.25;5068220;28;19919;-63
2021/12/11 02:02:06;;;;;;;;;;;;;;;1.53;100.00;98001.97;5069146;28;20535;-63
2021/12/11 02:04:35;;;;;;;;;;;;;;;1.44;100.00;98009.69;5063738;28;19920;-63
2021/12/11 02:07:02;;;;;;;;;;;;;;;1.45;100.00;98016.41;5068590;28;19912;-63
2021/12/11 02:09:32;;;;;;;;;;;;;;;1.43;100.00;98023.19;5069047;28;19924;-63
2021/12/11 02:12:05;;;;;;;;;;;;;;;1.52;100.00;98023.09;5069092;28;19936;-63
2021/12/11 02:14:37;;;;;;;;;;;;;;;1.33;100.00;98031.78;5066570;28;20414;-63
2021/12/11 02:17:04;;;;;;;;;;;;;;;1.32;100.00;98045.31;5075822;27;19923;-63
2021/12/11 02:19:40;;;;;;;;;;;;;;;1.37;100.00;98046.09;5068105;28;19942;-63
2021/12/11 02:22:09;;;;;;;;;;;;;;;1.43;100.00;98039.25;5068280;28;19971;-63
2021/12/11 02:24:42;;;;;;;;;;;;;;;1.47;100.00;98052.75;5068409;28;20538;-63
2021/12/11 02:27:12;;;;;;;;;;;;;;;1.53;100.00;98064.53;5067330;28;20427;-63
2021/12/11 02:29:42;;;;;;;;;;;;;;;1.50;100.00;98070.47;5068988;28;19955;-63
2021/12/11 02:32:17;;;;;;;;;;;;;;;1.52;100.00;98073.84;5067918;28;20305;-63
2021/12/11 02:34:53;;;;;;;;;;;;;;;1.54;100.00;98072.13;5069147;28;20373;-63
2021/12/11 02:37:19;;;;;;;;;;;;;;;1.49;100.00;98081.50;5067322;28;20480;-63
2021/12/11 02:39:46;;;;;;;;;;;;;;;1.63;100.00;98092.34;5068152;28;20082;-63
2021/12/11 02:42:29;;;;;;;;;;;;;;;1.25;100.00;98092.72;5067202;28;20070;-63
2021/12/11 02:45:07;;;;;;;;;;;;;;;1.22;100.00;98103.72;5066677;28;19926;-64
2021/12/11 02:47:40;;;;;;;;;;;;;;;1.30;100.00;98113.81;5067658;28;19943;-63
2021/12/11 02:50:05;;;;;;;;;;;;;;;1.18;100.00;98119.81;5066951;28;20582;-63
2021/12/11 02:52:54;;;;;;;;;;;;;;;1.33;100.00;98129.00;5067616;28;19921;-63
2021/12/11 02:55:37;;;;;;;;;;;;;;;1.56;100.00;98123.72;5067194;28;20292;-63
2021/12/11 02:58:22;;;;;;;;;;;;;;;1.49;100.00;98127.16;5067534;28;19912;-63
2021/12/11 03:00:50;;;;;;;;;;;;;;;1.50;100.00;98131.38;5066582;28;20469;-63
2021/12/11 03:03:21;;;;;;;;;;;;;;;1.62;100.00;98138.88;5067142;28;19923;-63
2021/12/11 03:05:56;;;;;;;;;;;;;;;1.55;100.00;98134.72;5067669;28;20530;-63
2021/12/11 03:08:26;;;;;;;;;;;;;;;1.85;100.00;98142.88;5067569;28;19948;-63
2021/12/11 03:10:54;;;;;;;;;;;;;;;1.65;100.00;98146.47;5066292;28;20017;-63
2021/12/11 03:13:20;;;;;;;;;;;;;;;1.37;100.00;98156.03;5067741;28;20442;-63
2021/12/11 03:16:11;;;;;;;;;;;;;;;1.53;100.00;98159.28;5066323;28;19995;-63
2021/12/11 03:18:37;;;;;;;;;;;;;;;1.58;100.00;98165.13;5067152;28;20181;-63
2021/12/11 03:21:02;;;;;;;;;;;;;;;1.35;100.00;98172.13;5067745;28;20281;-63
2021/12/11 03:23:28;;;;;;;;;;;;;;;1.66;100.00;98180.28;5066881;28;20400;-63
2021/12/11 03:25:54;;;;;;;;;;;;;;;1.54;100.00;98178.69;5066976;28;19912;-63
2021/12/11 03:28:23;;;;;;;;;;;;;;;1.68;100.00;98181.94;5067126;28;19913;-63
2021/12/11 03:30:57;;;;;;;;;;;;;;;1.82;100.00;98186.06;5067191;28;19943;-63
2021/12/11 03:33:23;;;;;;;;;;;;;;;1.63;100.00;98188.75;5066547;28;19978;-63
2021/12/11 03:35:49;;;;;;;;;;;;;;;1.97;100.00;98198.59;5064928;28;19913;-63
2021/12/11 03:38:23;;;;;;;;;;;;;;;1.86;100.00;98196.16;5067075;28;19924;-63
2021/12/11 03:40:49;;;;;;;;;;;;;;;1.51;100.00;98201.56;5066613;28;19919;-63
2021/12/11 03:43:17;;;;;;;;;;;;;;;1.43;100.00;98210.94;5066902;28;20289;-64
2021/12/11 03:45:43;;;;;;;;;;;;;;;1.30;100.00;98209.34;5065823;28;20007;-63
2021/12/11 03:48:18;;;;;;;;;;;;;;;1.55;100.00;98218.47;5066498;28;20393;-63
2021/12/11 03:50:44;;;;;;;;;;;;;;;1.67;100.00;98217.50;5065907;28;20007;-63
2021/12/11 03:53:09;;;;;;;;;;;;;;;1.34;100.00;98222.00;5066278;28;20031;-63
2021/12/11 03:55:37;;;;;;;;;;;;;;;1.45;100.00;98219.38;5066959;28;19924;-63
2021/12/11 03:58:09;;;;;;;;;;;;;;;1.59;100.00;98227.72;5066254;28;20397;-63
2021/12/11 04:00:53;;;;;;;;;;;;;;;1.50;100.00;98225.25;5066254;28;19912;-63
2021/12/11 04:03:23;;;;;;;;;;;;;;;1.50;100.00;98229.50;5066825;28;19917;-63
2021/12/11 04:05:52;;;;;;;;;;;;;;;1.63;100.00;98233.63;5066719;28;19920;-63
2021/12/11 04:08:21;;;;;;;;;;;;;;;1.54;100.00;98229.44;5067877;28;20428;-63
2021/12/11 04:10:46;;;;;;;;;;;;;;;1.78;100.00;98228.41;5066999;28;20389;-63
2021/12/11 04:13:18;;;;;;;;;;;;;;;1.61;100.00;98231.06;5066754;28;19962;-63
2021/12/11 04:16:02;;;;;;;;;;;;;;;1.74;100.00;98236.06;5065358;28;19999;-63
2021/12/11 04:18:27;;;;;;;;;;;;;;;1.59;100.00;98248.00;5065974;28;19942;-63
2021/12/11 04:20:53;;;;;;;;;;;;;;;1.48;100.00;98247.25;5065735;28;19917;-63
2021/12/11 04:23:19;;;;;;;;;;;;;;;1.43;100.00;98249.00;5068948;28;19962;-63
2021/12/11 04:25:45;;;;;;;;;;;;;;;1.56;100.00;98255.66;5069891;28;20350;-63
2021/12/11 04:28:11;;;;;;;;;;;;;;;1.43;100.00;98259.13;5070507;28;19913;-63
2021/12/11 04:30:39;;;;;;;;;;;;;;;1.40;100.00;98267.63;5069061;28;19962;-63
2021/12/11 04:33:05;;;;;;;;;;;;;;;1.49;100.00;98276.88;5068916;28;19947;-63
2021/12/11 04:35:31;;;;;;;;;;;;;;;1.52;100.00;98281.91;5069429;28;20405;-63
2021/12/11 04:38:00;;;;;;;;;;;;;;;1.42;100.00;98288.75;5069529;28;19938;-63
2021/12/11 04:40:28;;;;;;;;;;;;;;;1.34;100.00;98287.09;5068464;28;19912;-62
2021/12/11 04:43:15;;;;;;;;;;;;;;;1.47;100.00;98296.31;5069434;28;19916;-63
2021/12/11 04:45:45;;;;;;;;;;;;;;;1.45;100.00;98300.56;5074461;27;19920;-63
2021/12/11 04:48:18;;;;;;;;;;;;;;;1.25;100.00;98296.47;5069463;28;20400;-63
2021/12/11 04:57:03;;;;;;;;;;;;;;;1.35;100.00;98299.78;5059827;28;20323;-62
2021/12/11 04:59:50;;;;;;;;;;;;;;;1.27;100.00;98313.38;5058168;28;20097;-63
2021/12/11 05:10:50;;;;;;;;;;;;;;;1.12;100.00;98335.44;5059850;28;19913;-63
2021/12/11 05:13:16;;;;;;;;;;;;;;;1.22;100.00;98339.59;5059308;28;20034;-62
2021/12/11 05:15:43;;;;;;;;;;;;;;;1.10;100.00;98339.66;5058747;28;19927;-62
2021/12/11 05:18:14;;;;;;;;;;;;;;;1.18;100.00;98343.00;5057452;28;19955;-63
2021/12/11 05:20:40;;;;;;;;;;;;;;;1.28;100.00;98348.00;5057386;28;19920;-63
2021/12/11 05:23:07;;;;;;;;;;;;;;;1.22;100.00;98349.75;5058593;28;19946;-63
2021/12/11 05:25:32;;;;;;;;;;;;;;;1.12;100.00;98360.78;5040958;28;19916;-63
2021/12/11 05:27:59;;;;;;;;;;;;;;;1.20;100.00;98359.03;5058247;28;20385;-63
2021/12/11 05:30:26;;;;;;;;;;;;;;;1.04;100.00;98365.03;5063946;28;19997;-63
2021/12/11 05:32:53;;;;;;;;;;;;;;;1.09;100.00;98373.47;5067995;28;19931;-63
2021/12/11 05:35:18;;;;;;;;;;;;;;;1.24;100.00;98378.47;5067327;28;19917;-63
2021/12/11 05:37:44;;;;;;;;;;;;;;;0.92;100.00;98381.16;5067480;28;20419;-62
2021/12/11 05:40:12;;;;;;;;;;;;;;;1.06;100.00;98378.56;5066440;28;20255;-62
2021/12/11 05:42:37;;;;;;;;;;;;;;;1.20;100.00;98386.94;5067915;28;20370;-62
2021/12/11 05:45:06;;;;;;;;;;;;;;;1.09;100.00;98401.34;5067519;28;19916;-63
2021/12/11 05:47:32;;;;;;;;;;;;;;;1.14;100.00;98397.13;5066759;28;20071;-63
2021/12/11 05:49:58;;;;;;;;;;;;;;;1.03;100.00;98404.78;5065307;28;20339;-62
2021/12/11 05:52:23;;;;;;;;;;;;;;;1.14;100.00;98401.34;5068217;28;19916;-62
2021/12/11 05:54:50;;;;;;;;;;;;;;;1.26;100.00;98408.91;5067864;28;19912;-63
2021/12/11 05:57:17;;;;;;;;;;;;;;;1.29;100.00;98406.34;5067427;28;19916;-62
2021/12/11 05:59:43;;;;;;;;;;;;;;;0.95;100.00;98418.31;5068038;28;20014;-63
2021/12/11 06:02:09;;;;;;;;;;;;;;;1.07;100.00;98417.44;5067508;28;20572;-62
2021/12/11 06:04:40;;;;;;;;;;;;;;;0.95;100.00;98420.84;5065613;28;19916;-62
2021/12/11 06:07:09;;;;;;;;;;;;;;;1.07;100.00;98433.47;5066185;28;20298;-62
2021/12/11 06:09:34;;;;;;;;;;;;;;;0.88;100.00;98435.22;5066314;27;19916;-62
2021/12/11 06:12:01;;;;;;;;;;;;;;;1.06;100.00;98441.94;5066296;28;19920;-62
2021/12/11 06:14:27;;;;;;;;;;;;;;;1.09;100.00;98447.00;5066570;28;20395;-62
2021/12/11 06:16:54;;;;;;;;;;;;;;;1.15;100.00;98448.69;5065343;28;19923;-62
2021/12/11 06:19:21;;;;;;;;;;;;;;;0.98;100.00;98453.78;5065493;28;19916;-62
2021/12/11 06:21:47;;;;;;;;;;;;;;;1.17;100.00;98447.00;5066224;28;19916;-63
2021/12/11 06:24:12;;;;;;;;;;;;;;;1.01;100.00;98458.88;5066042;28;19924;-63
2021/12/11 06:26:38;;;;;;;;;;;;;;;1.14;100.00;98458.00;5066413;28;19923;-62
2021/12/11 06:29:03;;;;;;;;;;;;;;;1.25;100.00;98466.41;5066858;28;19921;-62
2021/12/11 06:31:35;;;;;;;;;;;;;;;1.04;100.00;98462.22;5066709;28;19968;-62
2021/12/11 06:34:01;;;;;;;;;;;;;;;1.25;100.00;98470.63;5065351;28;19919;-62
2021/12/11 06:36:29;;;;;;;;;;;;;;;1.23;100.00;98478.25;5066535;28;19920;-62
2021/12/11 06:39:00;;;;;;;;;;;;;;;1.12;100.00;98485.06;5064363;28;20350;-62
2021/12/11 06:41:31;;;;;;;;;;;;;;;1.22;100.00;98486.69;5065085;28;19913;-62
2021/12/11 06:43:59;;;;;;;;;;;;;;;1.10;100.00;98490.97;5058067;28;19920;-62
2021/12/11 06:46:35;;;;;;;;;;;;;;;0.78;100.00;98497.78;5064674;28;19917;-62
2021/12/11 06:49:01;;;;;;;;;;;;;;;1.02;100.00;98501.13;5064480;28;19928;-62
2021/12/11 06:51:30;;;;;;;;;;;;;;;0.96;100.00;98508.75;5064563;28;19924;-62
2021/12/11 06:53:59;;;;;;;;;;;;;;;0.81;100.00;98514.66;5064628;28;19920;-62
2021/12/11 06:56:25;;;;;;;;;;;;;;;0.93;100.00;98513.81;5064526;28;19916;-62
2021/12/11 06:58:51;;;;;;;;;;;;;;;0.66;100.00;98528.16;5064990;28;19943;-62
2021/12/11 07:01:22;;;;;;;;;;;;;;;0.97;100.00;98535.78;5063770;28;19920;-62
2021/12/11 07:03:47;;;;;;;;;;;;;;;0.89;100.00;98537.47;5065848;28;19918;-62
2021/12/11 07:06:13;;;;;;;;;;;;;;;0.90;100.00;98545.06;5064571;28;19917;-62
2021/12/11 07:08:39;;;;;;;;;;;;;;;1.00;100.00;98550.97;5065999;28;20144;-63
2021/12/11 07:11:07;;;;;;;;;;;;;;;0.70;100.00;98557.75;5064109;28;20607;-62
2021/12/11 07:13:33;;;;;;;;;;;;;;;0.89;100.00;98565.34;5067560;28;20386;-67
2021/12/11 07:15:58;;;;;;;;;;;;;;;0.72;100.00;98573.81;5064721;28;19924;-62
2021/12/11 07:18:24;;;;;;;;;;;;;;;0.82;100.00;98578.03;5065721;28;19971;-62
2021/12/11 07:20:55;;;;;;;;;;;;;;;0.89;100.00;98593.22;5064837;28;19912;-63
2021/12/11 07:23:22;;;;;;;;;;;;;;;0.58;100.00;98599.13;5065079;28;19919;-62
2021/12/11 07:25:53;;;;;;;;;;;;;;;0.86;100.00;98601.69;5064978;28;19924;-64
2021/12/11 07:28:21;;;;;;;;;;;;;;;0.77;100.00;98614.34;5061607;28;19917;-63
2021/12/11 07:30:46;;;;;;;;;;;;;;;0.60;100.00;98616.88;5065136;28;20468;-63
2021/12/11 07:33:15;;;;;;;;;;;;;;;0.77;100.00;98624.50;5064950;28;19931;-63
2021/12/11 07:35:41;;;;;;;;;;;;;;;0.47;100.00;98630.34;5063219;28;20016;-63
2021/12/11 07:38:06;;;;;;;;;;;;;;;0.66;100.00;98637.13;5063528;28;19970;-63
2021/12/11 07:40:33;;;;;;;;;;;;;;;1.12;100.00;98641.41;5062735;28;20341;-63
2021/12/11 07:43:00;;;;;;;;;;;;;;;1.12;100.00;98644.81;5062912;28;20362;-63
2021/12/11 07:45:26;;;;;;;;;;;;;;;0.90;100.00;98655.78;5060047;28;20450;-63
2021/12/11 07:47:52;;;;;;;;;;;;;;;0.80;100.00;98652.41;5062930;28;19916;-63
2021/12/11 07:50:17;;;;;;;;;;;;;;;0.97;100.00;98657.47;5061840;28;20289;-63
2021/12/11 07:52:43;;;;;;;;;;;;;;;0.87;100.00;98658.28;5063999;28;20015;-63
2021/12/11 07:55:09;;;;;;;;;;;;;;;0.64;100.00;98659.13;5063422;28;20557;-62
2021/12/11 07:57:35;;;;;;;;;;;;;;;0.85;100.00;98668.44;5059495;28;20424;-64
2021/12/11 08:00:00;;;;;;;;;;;;;;;0.92;100.00;98670.16;5062255;28;19969;-62
2021/12/11 08:02:25;;;;;;;;;;;;;;;0.78;100.00;98667.59;5063357;28;19928;-62
2021/12/11 08:04:51;;;;;;;;;;;;;;;0.62;100.00;98681.06;5063207;28;19916;-62
2021/12/11 08:07:16;;;;;;;;;;;;;;;0.77;100.00;98686.16;5062790;28;19917;-63
2021/12/11 08:09:41;;;;;;;;;;;;;;;1.00;100.00;98680.28;5062176;28;19916;-63
2021/12/11 08:12:07;;;;;;;;;;;;;;;1.02;100.00;98681.13;5063329;28;19970;-63
2021/12/11 08:14:33;;;;;;;;;;;;;;;1.13;100.00;98688.75;5062762;28;20015;-62
2021/12/11 08:17:05;;;;;;;;;;;;;;;1.09;100.00;98692.97;5061372;28;19951;-62
2021/12/11 08:19:32;;;;;;;;;;;;;;;1.08;100.00;98696.38;5061163;28;19951;-62
2021/12/11 08:22:00;;;;;;;;;;;;;;;0.88;100.00;98698.88;5062044;28;19967;-62
2021/12/11 08:24:27;;;;;;;;;;;;;;;0.97;100.00;98713.25;5062211;28;19920;-63
2021/12/11 08:26:53;;;;;;;;;;;;;;;0.91;100.00;98713.22;5063247;28;19943;-62
2021/12/11 08:29:19;;;;;;;;;;;;;;;0.88;100.00;98708.16;5062469;28;20188;-62
2021/12/11 08:31:47;;;;;;;;;;;;;;;0.95;100.00;98725.06;5061934;28;19916;-62
2021/12/11 08:34:13;;;;;;;;;;;;;;;1.10;100.00;98725.13;5065442;28;20275;-62
2021/12/11 08:36:39;;;;;;;;;;;;;;;1.10;100.00;98725.13;5064054;28;19924;-62
2021/12/11 08:39:06;;;;;;;;;;;;;;;1.06;100.00;98730.19;5062658;28;19939;-62
2021/12/11 08:41:31;;;;;;;;;;;;;;;1.00;100.00;98733.53;5064690;28;20289;-62
2021/12/11 08:44:00;;;;;;;;;;;;;;;0.65;100.00;98736.00;5064196;28;19916;-62
2021/12/11 08:46:27;;;;;;;;;;;;;;;0.46;100.00;98745.19;5063529;28;19917;-62
2021/12/11 08:48:55;;;;;;;;;;;;;;;0.58;100.00;98755.38;5064300;28;19924;-63
2021/12/11 08:51:24;;;;;;;;;;;;;;;0.37;100.00;98753.59;5064017;28;19921;-63
2021/12/11 08:53:52;;;;;;;;;;;;;;;0.63;100.00;98763.84;5063921;28;19960;-63
2021/12/11 08:56:18;;;;;;;;;;;;;;;0.58;100.00;98768.91;5062293;28;20266;-63
2021/12/11 08:58:44;;;;;;;;;;;;;;;0.68;100.00;98767.25;5060806;28;19913;-63
2021/12/11 09:01:24;;;;;;;;;;;;;;;0.57;100.00;98779.88;5058976;28;19924;-65
2021/12/11 09:03:56;;;;;;;;;;;;;;;0.88;100.00;98784.22;5059961;28;19924;-64
2021/12/11 09:06:28;;;;;;;;;;;;;;;0.83;100.00;98792.66;5060504;28;19916;-65
2021/12/11 09:09:04;;;;;;;;;;;;;;;0.54;100.00;98797.59;5061427;28;19939;-65
2021/12/11 09:11:52;;;;;;;;;;;;;;;0.87;100.00;98807.84;5063746;28;19927;-64
2021/12/11 09:14:28;;;;;;;;;;;;;;;0.75;100.00;98807.00;5061671;27;19920;-63
2021/12/11 09:17:15;;;;;;;;;;;;;;;0.96;100.00;98818.06;5060795;28;19974;-65
2021/12/11 09:19:52;;;;;;;;;;;;;;;1.00;100.00;98832.41;5058941;28;20033;-64
2021/12/11 09:22:24;;;;;;;;;;;;;;;1.11;100.00;98833.31;5060305;28;19927;-64
2021/12/11 09:24:51;;;;;;;;;;;;;;;1.03;100.00;98840.06;5061132;28;20274;-65
2021/12/11 09:27:22;;;;;;;;;;;;;;;0.72;100.00;98839.91;5062517;28;19925;-64
2021/12/11 09:30:06;;;;;;;;;;;;;;;1.21;100.00;98847.72;5063490;28;20006;-63
2021/12/11 09:32:37;;;;;;;;;;;;;;;0.96;100.00;98851.03;5051706;28;19921;-63
2021/12/11 09:35:06;;;;;;;;;;;;;;;1.03;100.00;98848.50;5051475;28;19920;-63
2021/12/11 09:37:32;;;;;;;;;;;;;;;1.27;100.00;98849.41;5056512;28;19921;-63
2021/12/11 09:39:59;;;;;;;;;;;;;;;0.94;100.00;98860.31;5058535;28;19926;-63
2021/12/11 09:42:24;;;;;;;;;;;;;;;1.16;100.00;98877.28;5057820;28;19917;-63
2021/12/11 09:44:59;;;;;;;;;;;;;;;1.32;100.00;98877.34;5057753;28;20423;-63
2021/12/11 09:47:30;;;;;;;;;;;;;;;1.04;100.00;98873.00;5058693;27;20273;-63
2021/12/11 09:50:04;;;;;;;;;;;;;;;1.13;100.00;98879.81;5058924;28;19927;-63
2021/12/11 09:52:32;;;;;;;;;;;;;;;1.10;100.00;98882.34;5054867;28;19928;-63
2021/12/11 09:55:24;;;;;;;;;;;;;;;1.19;100.00;98892.53;5058447;28;19917;-63
2021/12/11 09:57:51;;;;;;;;;;;;;;;1.31;100.00;98890.88;5054274;28;20292;-63
2021/12/11 10:00:19;;;;;;;;;;;;;;;1.19;100.00;98894.22;5056747;28;19923;-63
2021/12/11 10:02:45;;;;;;;;;;;;;;;1.36;100.00;98894.28;5056464;28;19935;-63
2021/12/11 10:05:44;;;;;;;;;;;;;;;1.48;100.00;98891.75;5055641;28;19924;-64
2021/12/11 10:08:39;;;;;;;;;;;;;;;1.44;100.00;98888.38;5055130;28;20007;-63
2021/12/11 10:11:21;;;;;;;;;;;;;;;1.43;100.00;98896.81;5056589;28;19924;-63
2021/12/11 10:14:08;;;;;;;;;;;;;;;1.73;100.00;98895.19;5054990;28;20324;-63
2021/12/11 10:16:36;;;;;;;;;;;;;;;1.91;100.00;98894.38;5055374;28;20005;-63
2021/12/11 10:19:06;;;;;;;;;;;;;;;2.25;100.00;98904.56;5055549;28;19966;-63
2021/12/11 10:21:34;;;;;;;;;;;;;;;2.46;100.00;98894.41;5053705;28;20452;-63
2021/12/11 10:24:02;;;;;;;;;;;;;;;2.32;100.00;98896.09;5057379;28;19970;-65
2021/12/11 10:26:28;;;;;;;;;;;;;;;2.25;100.00;98896.94;5070968;28;19962;-64
2021/12/11 10:28:58;;;;;;;;;;;;;;;2.36;100.00;98896.94;5056666;28;19974;-64
2021/12/11 10:31:25;;;;;;;;;;;;;;;2.19;100.00;98896.94;5056237;28;20278;-64
2021/12/11 10:33:51;;;;;;;;;;;;;;;2.22;100.00;98900.34;5059074;28;20292;-64
2021/12/11 10:36:19;;;;;;;;;;;;;;;2.61;100.00;98905.41;5055864;28;20440;-64
2021/12/11 10:38:45;;;;;;;;;;;;;;;2.43;100.00;98903.72;5057600;28;19956;-64
2021/12/11 10:41:11;;;;;;;;;;;;;;;2.39;100.00;98913.03;5057734;28;21042;-64
2021/12/11 10:43:53;;;;;;;;;;;;;;;2.44;100.00;98908.81;5057326;28;19921;-64
2021/12/11 10:46:19;;;;;;;;;;;;;;;2.63;100.00;98913.88;5055528;28;20400;-64
2021/12/11 10:48:46;;;;;;;;;;;;;;;2.70;100.00;98916.38;5059453;28;20380;-64
2021/12/11 10:51:19;;;;;;;;;;;;;;;2.91;100.00;98912.09;5057848;28;19947;-64
2021/12/11 10:53:46;;;;;;;;;;;;;;;2.59;100.00;98907.94;5055402;28;19921;-63
2021/12/11 10:56:12;;;;;;;;;;;;;;;3.07;100.00;98916.28;5049827;28;20405;-64
2021/12/11 10:58:40;;;;;;;;;;;;;;;2.69;100.00;98921.47;5058006;28;20049;-64
2021/12/11 11:01:10;;;;;;;;;;;;;;;2.59;100.00;98920.63;5059319;28;20361;-63
2021/12/11 11:03:53;;;;;;;;;;;;;;;2.83;100.00;98919.78;5059737;28;19932;-64
2021/12/11 11:06:19;;;;;;;;;;;;;;;2.60;100.00;98921.47;5057585;28;19920;-64
2021/12/11 11:08:46;;;;;;;;;;;;;;;2.54;100.00;98924.06;5062667;28;20295;-63
2021/12/11 11:11:12;;;;;;;;;;;;;;;2.55;100.00;98924.03;5061582;28;20027;-64
2021/12/11 11:13:41;;;;;;;;;;;;;;;2.75;100.00;98930.81;5066796;28;19926;-65
2021/12/11 11:16:07;;;;;;;;;;;;;;;3.04;100.00;98931.56;5058356;28;20381;-65
2021/12/11 11:18:32;;;;;;;;;;;;;;;3.59;100.00;98927.97;5062288;28;19959;-65
2021/12/11 11:21:00;;;;;;;;;;;;;;;3.04;100.00;98925.66;5060904;28;19951;-66
2021/12/11 11:23:25;;;;;;;;;;;;;;;3.62;100.00;98922.84;5060020;28;19927;-65
2021/12/11 11:25:52;;;;;;;;;;;;;;;3.04;100.00;98926.50;5062040;28;20390;-65
2021/12/11 11:28:18;;;;;;;;;;;;;;;3.06;100.00;98926.50;5061838;28;20355;-65
2021/12/11 11:31:07;;;;;;;;;;;;;;;3.30;100.00;98921.28;5058601;28;20362;-65
2021/12/11 11:33:34;;;;;;;;;;;;;;;3.46;100.00;98931.41;5058980;28;19920;-64
2021/12/11 11:36:03;;;;;;;;;;;;;;;2.90;100.00;98929.06;5061744;28;19970;-66
2021/12/11 11:38:34;;;;;;;;;;;;;;;2.83;100.00;98929.94;5060388;28;20375;-65
2021/12/11 11:41:14;;;;;;;;;;;;;;;2.98;100.00;98928.19;5058674;28;20282;-65
2021/12/11 11:43:40;;;;;;;;;;;;;;;3.53;100.00;98930.53;5062695;28;20029;-65
2021/12/11 11:46:06;;;;;;;;;;;;;;;2.97;100.00;98926.53;5060638;28;19958;-65
2021/12/11 11:48:32;;;;;;;;;;;;;;;3.26;100.00;98924.72;5060089;28;20016;-65
2021/12/11 11:50:58;;;;;;;;;;;;;;;2.96;100.00;98933.28;5063326;28;20215;-65
2021/12/11 11:53:26;;;;;;;;;;;;;;;3.28;100.00;98928.09;5058438;28;19912;-65
2021/12/11 11:55:57;;;;;;;;;;;;;;;3.38;100.00;98931.47;5060020;28;20414;-65
2021/12/11 11:58:24;;;;;;;;;;;;;;;3.24;100.00;98934.06;5060295;28;19916;-66
2021/12/11 12:00:53;;;;;;;;;;;;;;;3.57;100.00;98929.69;5060610;28;19920;-66
2021/12/11 12:03:19;;;;;;;;;;;;;;;3.55;100.00;98931.38;5061237;28;20033;-65
2021/12/11 12:05:50;;;;;;;;;;;;;;;3.51;100.00;98938.19;5066762;28;19916;-65
2021/12/11 12:08:17;;;;;;;;;;;;;;;3.68;100.00;98938.09;5069926;28;19963;-66
2021/12/11 12:10:43;;;;;;;;;;;;;;;4.07;100.00;98938.72;5067739;28;20393;-66
2021/12/11 12:13:10;;;;;;;;;;;;;;;3.48;100.00;98947.53;5068682;28;19956;-65
2021/12/11 12:15:39;;;;;;;;;;;;;;;3.94;100.00;98945.59;5070436;28;20015;-65
2021/12/11 12:18:04;;;;;;;;;;;;;;;3.87;100.00;98943.94;5064478;28;19912;-65
2021/12/11 12:20:32;;;;;;;;;;;;;;;3.94;100.00;98945.59;5070908;28;20453;-66
2021/12/11 12:22:57;;;;;;;;;;;;;;;4.48;100.00;98950.31;5069686;28;19916;-65
2021/12/11 12:25:24;;;;;;;;;;;;;;;3.96;100.00;98945.59;5067837;28;19970;-65
2021/12/11 12:27:50;;;;;;;;;;;;;;;4.21;100.00;98953.91;5069668;28;19919;-65
2021/12/11 12:30:24;;;;;;;;;;;;;;;3.71;100.00;98953.34;5064244;28;20003;-66
2021/12/11 12:32:52;;;;;;;;;;;;;;;4.00;100.00;98949.81;5069166;28;19963;-65
2021/12/11 12:35:18;;;;;;;;;;;;;;;4.43;100.00;98953.78;5068102;28;19999;-65
2021/12/11 12:37:43;;;;;;;;;;;;;;;4.01;100.00;98948.94;5069364;28;19996;-65
2021/12/11 12:40:19;;;;;;;;;;;;;;;4.25;100.00;98959.84;5070223;28;19916;-65
2021/12/11 12:42:52;;;;;;;;;;;;;;;4.90;100.00;98960.13;5067960;28;20282;-65
2021/12/11 12:45:20;;;;;;;;;;;;;;;4.92;100.00;98961.81;5069891;28;19916;-66
2021/12/11 12:47:48;;;;;;;;;;;;;;;4.44;100.00;98968.19;5072291;28;19916;-66
2021/12/11 12:50:18;;;;;;;;;;;;;;;4.26;100.00;98981.91;5072714;28;19970;-65
2021/12/11 12:52:44;;;;;;;;;;;;;;;4.88;100.00;98984.81;5073381;28;19978;-65
2021/12/11 12:55:11;;;;;;;;;;;;;;;4.70;100.00;98988.38;5072738;28;19912;-66
2021/12/11 12:57:39;;;;;;;;;;;;;;;4.63;100.00;98979.97;5068028;28;19967;-66
2021/12/11 13:00:10;;;;;;;;;;;;;;;4.69;100.00;98984.16;5070311;28;19916;-66
2021/12/11 13:02:38;;;;;;;;;;;;;;;5.16;100.00;98982.84;5069958;28;20421;-65
2021/12/11 13:05:07;;;;;;;;;;;;;;;5.03;100.00;98988.06;5073007;28;19966;-65
2021/12/11 13:07:33;;;;;;;;;;;;;;;4.63;100.00;98989.28;5070700;28;20011;-66
2021/12/11 13:10:01;;;;;;;;;;;;;;;4.98;100.00;98989.81;5068974;28;19916;-66
2021/12/11 13:12:29;;;;;;;;;;;;;;;4.73;100.00;98998.56;5071022;28;20527;-65
2021/12/11 13:14:56;;;;;;;;;;;;;;;4.97;100.00;98993.25;5068811;28;19916;-65
2021/12/11 13:17:25;;;;;;;;;;;;;;;4.59;100.00;98994.44;5067321;28;19921;-65